Time;durP1;ratioP1;P1;durP2;ratioP2;P2;SDS_P1;SDS_P2;PMS_P1;PMS_P2;Temp;Humidity;BMP_temperature;BMP_pressure;BME280_temperature;BME280_humidity;BME280_pressure;Samples;Min_cycle;Max_cycle;Signal;HPM_P1;HPM_P2
2022/04/02 00:00:21;;;;;;;18.82;4.42;;;;;;;15.58;58.45;98199.77;126355;1101;101164;-76
2022/04/02 00:03:07;;;;;;;17.23;4.57;;;;;;;15.49;61.94;98191.14;126347;1102;101699;-76
2022/04/02 00:05:36;;;;;;;18.77;4.00;;;;;;;15.43;59.66;98193.02;126763;1102;101646;-76
2022/04/02 00:08:06;;;;;;;13.43;3.70;;;;;;;15.35;59.05;98194.07;126340;1102;101524;-76
2022/04/02 00:10:38;;;;;;;18.23;4.10;;;;;;;15.30;60.27;98185.38;126386;1102;102705;-75
2022/04/02 00:13:09;;;;;;;16.57;3.60;;;;;;;15.25;59.67;98201.32;127374;1102;101757;-75
2022/04/02 00:15:42;;;;;;;17.73;4.00;;;;;;;15.24;60.67;98203.10;126410;1102;101619;-75
2022/04/02 00:18:11;;;;;;;14.23;4.07;;;;;;;15.21;59.96;98192.59;126407;1102;101341;-75
2022/04/02 00:20:43;;;;;;;15.47;4.10;;;;;;;15.18;60.13;98189.16;126408;1102;101610;-76
2022/04/02 00:26:06;;;;;;;15.13;3.53;;;;;;;15.06;60.92;98204.32;126527;1102;101542;-75
2022/04/02 00:28:39;;;;;;;10.27;3.30;;;;;;;15.03;60.53;98203.52;127242;1101;101530;-75
2022/04/02 00:31:14;;;;;;;13.67;3.47;;;;;;;15.00;60.64;98208.86;127415;1101;101524;-76
2022/04/02 00:33:45;;;;;;;10.97;3.33;;;;;;;14.94;60.35;98201.91;126379;1102;101692;-76
2022/04/02 00:36:21;;;;;;;13.03;4.00;;;;;;;14.91;60.46;98202.86;127378;1101;101893;-76
2022/04/02 00:39:02;;;;;;;7.90;2.97;;;;;;;14.88;61.74;98205.55;126334;1102;101733;-76
2022/04/02 00:41:40;;;;;;;14.53;3.47;;;;;;;14.85;61.02;98200.33;126487;1102;101598;-76
2022/04/02 00:44:13;;;;;;;10.50;2.80;;;;;;;14.84;61.85;98197.72;126328;1105;101865;-76
2022/04/02 00:46:45;;;;;;;12.35;3.00;;;;;;;14.79;60.68;98191.62;126384;1102;101552;-75
2022/04/02 00:49:17;;;;;;;10.27;3.27;;;;;;;14.74;60.95;98182.05;126303;1102;102076;-75
2022/04/02 00:51:50;;;;;;;10.53;3.30;;;;;;;14.73;61.86;98174.16;127292;1101;101587;-76
2022/04/02 00:54:21;;;;;;;11.40;3.27;;;;;;;14.68;62.22;98179.52;126360;1102;101894;-76
2022/04/02 00:56:53;;;;;;;12.53;3.53;;;;;;;14.62;65.52;98181.41;127377;1101;101562;-76
2022/04/02 00:59:24;;;;;;;11.67;3.40;;;;;;;14.60;61.62;98168.23;126342;1102;101543;-75
2022/04/02 01:01:56;;;;;;;14.07;3.33;;;;;;;14.58;64.92;98166.48;126336;1105;103690;-76
2022/04/02 01:04:31;;;;;;;13.67;3.77;;;;;;;14.55;63.10;98173.56;126325;1102;101434;-75
2022/04/02 01:07:03;;;;;;;14.63;3.20;;;;;;;14.53;63.45;98170.05;126398;1102;101603;-75
2022/04/02 01:09:35;;;;;;;12.67;2.90;;;;;;;14.52;63.87;98167.45;126347;1102;101368;-75
2022/04/02 01:12:07;;;;;;;9.57;3.03;;;;;;;14.53;63.14;98171.83;127356;1101;101617;-76
2022/04/02 01:14:38;;;;;;;14.20;3.37;;;;;;;14.55;63.48;98176.20;126343;1102;103518;-75
2022/04/02 01:17:17;;;;;;;9.10;3.10;;;;;;;14.55;63.75;98173.56;127396;1101;101691;-76
2022/04/02 01:19:47;;;;;;;11.53;3.20;;;;;;;14.55;63.13;98178.84;126368;1102;101622;-76
2022/04/02 01:22:24;;;;;;;11.50;3.23;;;;;;;14.56;62.79;98177.92;126391;1101;101579;-75
2022/04/02 01:25:05;;;;;;;11.97;3.50;;;;;;;14.53;63.69;98191.16;126333;1102;101598;-76
2022/04/02 01:27:37;;;;;;;13.23;3.40;;;;;;;14.52;63.67;98191.20;126386;1102;102038;-76
2022/04/02 01:30:11;;;;;;;8.80;2.67;;;;;;;14.53;63.51;98190.31;127261;1101;101546;-76
2022/04/02 01:32:43;;;;;;;7.40;2.80;;;;;;;14.52;63.42;98193.83;126332;1105;101530;-75
2022/04/02 01:35:16;;;;;;;14.87;3.33;;;;;;;14.54;62.78;98186.78;126360;1102;101595;-76
2022/04/02 01:37:56;;;;;;;9.53;3.00;;;;;;;14.55;63.54;98188.50;126317;1105;101547;-76
2022/04/02 01:40:30;;;;;;;11.37;3.30;;;;;;;14.54;62.88;98197.34;126355;1102;103044;-75
2022/04/02 01:43:00;;;;;;;14.63;3.50;;;;;;;14.53;63.78;98201.72;126329;1105;101881;-76
2022/04/02 01:45:30;;;;;;;8.17;2.90;;;;;;;14.52;64.51;98207.03;126067;1105;101610;-76
2022/04/02 01:48:02;;;;;;;13.93;3.00;;;;;;;14.51;63.49;98210.58;126316;1105;101676;-76
2022/04/02 01:50:46;;;;;;;9.93;3.00;;;;;;;14.50;63.96;98214.97;126357;1105;101867;-76
2022/04/02 01:53:22;;;;;;;11.53;3.10;;;;;;;14.53;63.44;98203.50;126065;1105;102718;-76
2022/04/02 01:55:53;;;;;;;12.10;3.33;;;;;;;14.54;64.27;98214.03;126314;1105;102233;-75
2022/04/02 01:58:32;;;;;;;11.03;3.10;;;;;;;14.52;63.45;98212.30;126319;1105;101616;-75
2022/04/02 02:01:06;;;;;;;10.83;3.20;;;;;;;14.54;64.21;98216.67;126320;1105;112007;-75
2022/04/02 02:03:36;;;;;;;13.08;3.15;;;;;;;14.56;63.54;98216.64;126334;1105;101617;-75
2022/04/02 02:06:07;;;;;;;10.50;3.10;;;;;;;14.58;63.69;98220.12;126321;1105;101905;-76
2022/04/02 02:08:37;;;;;;;11.50;3.03;;;;;;;14.59;63.76;98221.88;126001;1105;101586;-76
2022/04/02 02:11:29;;;;;;;9.80;2.80;;;;;;;14.59;64.37;98216.59;126287;1105;101955;-76
2022/04/02 02:14:34;;;;;;;7.43;2.90;;;;;;;14.61;64.70;98212.19;126086;1105;101391;-75
2022/04/02 02:17:15;;;;;;;7.30;2.77;;;;;;;14.64;64.62;98211.27;126364;1105;101611;-75
2022/04/02 02:19:47;;;;;;;8.90;2.80;;;;;;;14.67;64.25;98206.80;126322;1104;103750;-76
2022/04/02 02:22:18;;;;;;;7.43;2.80;;;;;;;14.69;64.27;98194.47;126328;1102;101753;-76
2022/04/02 02:24:50;;;;;;;7.97;2.80;;;;;;;14.71;64.65;98192.66;126371;1105;101587;-76
2022/04/02 02:27:19;;;;;;;12.20;3.20;;;;;;;14.70;64.45;98184.77;126364;1105;101577;-76
2022/04/02 02:29:49;;;;;;;10.63;3.03;;;;;;;14.68;63.75;98184.80;126375;1105;101551;-76
2022/04/02 02:32:25;;;;;;;11.33;2.93;;;;;;;14.70;64.64;98171.56;126369;1101;101999;-76
2022/04/02 02:37:48;;;;;;;9.57;2.67;;;;;;;14.72;63.92;98164.48;126391;1102;101581;-76
2022/04/02 02:40:19;;;;;;;9.93;3.33;;;;;;;14.75;63.84;98167.06;127273;1101;101494;-76
2022/04/02 02:42:51;;;;;;;10.07;3.03;;;;;;;14.72;64.43;98154.81;126401;1102;101523;-75
2022/04/02 02:45:31;;;;;;;8.37;3.07;;;;;;;14.61;64.11;98156.76;126368;1102;101969;-77
2022/04/02 02:48:06;;;;;;;17.77;5.90;;;;;;;14.54;64.46;98155.97;126383;1102;101562;-76
2022/04/02 02:50:47;;;;;;;13.03;4.80;;;;;;;14.55;64.01;98156.83;126348;1102;101387;-75
2022/04/02 02:53:19;;;;;;;18.90;5.80;;;;;;;14.53;64.63;98156.86;126378;1102;101549;-76
2022/04/02 02:55:50;;;;;;;16.07;5.50;;;;;;;14.56;64.50;98163.86;126377;1105;101646;-76
2022/04/02 02:58:22;;;;;;;16.77;5.57;;;;;;;14.59;63.78;98161.17;126329;1102;101899;-76
2022/04/02 03:00:54;;;;;;;12.20;4.20;;;;;;;14.64;64.86;98163.77;126330;1105;101958;-76
2022/04/02 03:03:27;;;;;;;12.03;4.37;;;;;;;14.63;63.78;98168.18;126343;1102;101665;-76
2022/04/02 03:05:59;;;;;;;14.90;3.67;;;;;;;14.61;64.53;98177.02;126348;1102;101673;-76
2022/04/02 03:08:33;;;;;;;10.03;3.20;;;;;;;14.59;64.26;98184.06;126350;1105;101840;-76
2022/04/02 03:11:06;;;;;;;11.13;3.40;;;;;;;14.52;65.09;98188.55;126307;1105;101994;-76
2022/04/02 03:13:39;;;;;;;11.23;3.17;;;;;;;14.44;65.31;98187.83;126292;1105;102011;-76
2022/04/02 03:16:14;;;;;;;12.20;3.30;;;;;;;14.43;64.87;98183.44;126365;1105;101517;-76
2022/04/02 03:18:55;;;;;;;15.30;3.83;;;;;;;14.43;64.69;98186.07;126332;1106;101625;-76
2022/04/02 03:21:27;;;;;;;12.23;3.67;;;;;;;14.41;65.18;98193.15;126315;1105;101932;-76
2022/04/02 03:23:56;;;;;;;9.43;3.40;;;;;;;14.40;64.61;98181.73;126320;1105;103353;-76
2022/04/02 03:26:28;;;;;;;11.90;3.50;;;;;;;14.43;64.78;98199.27;125979;1104;102045;-76
2022/04/02 03:29:01;;;;;;;6.35;3.20;;;;;;;14.40;64.91;98194.92;125971;1105;101567;-77
2022/04/02 03:31:30;;;;;;;14.17;3.40;;;;;;;14.37;64.88;98198.48;125960;1105;101928;-76
2022/04/02 03:34:01;;;;;;;9.03;3.67;;;;;;;14.34;64.76;98187.98;125934;1109;101792;-76
2022/04/02 03:36:32;;;;;;;9.63;3.03;;;;;;;14.30;64.88;98198.60;125938;1106;102029;-75
2022/04/02 03:39:05;;;;;;;8.50;3.43;;;;;;;14.29;64.77;98195.11;125868;1108;101368;-76
2022/04/02 03:41:53;;;;;;;;;;;;;;;;;;;;;
2022/04/02 03:44:24;;;;;;;9.83;2.93;;;;;;;14.31;66.03;98185.39;126026;1105;101677;-76
2022/04/02 03:47:11;;;;;;;5.50;2.87;;;;;;;14.33;65.76;98191.50;126327;1105;101182;-76
2022/04/02 03:49:53;;;;;;;7.13;3.10;;;;;;;14.31;65.46;98189.80;125918;1109;102739;-76
2022/04/02 03:52:40;;;;;;;8.40;3.00;;;;;;;14.31;65.74;98200.35;125896;1105;101660;-76
2022/04/02 03:55:15;;;;;;;8.13;3.00;;;;;;;14.31;65.83;98200.35;125954;1105;101201;-76
2022/04/02 03:57:47;;;;;;;9.60;3.50;;;;;;;14.28;65.93;98203.91;126127;1105;101231;-76
2022/04/02 04:00:19;;;;;;;11.47;3.60;;;;;;;14.25;66.47;98211.86;126031;1105;101625;-75
2022/04/02 04:02:56;;;;;;;10.33;3.63;;;;;;;14.21;66.25;98218.10;126307;1105;101999;-75
2022/04/02 04:05:31;;;;;;;13.57;4.53;;;;;;;14.17;66.01;98221.67;126156;1105;102006;-76
2022/04/02 04:08:06;;;;;;;8.65;4.05;;;;;;;14.13;66.27;98230.52;126385;1101;101609;-76
2022/04/02 04:10:36;;;;;;;;;;;;;;;14.09;67.42;98236.75;126385;1104;101745;-76
2022/04/02 04:13:07;;;;;;;17.80;4.10;;;;;;;14.10;66.31;98236.72;126735;1101;101145;-76
2022/04/02 04:15:40;;;;;;;11.08;4.17;;;;;;;14.09;66.51;98239.38;126331;1102;102757;-76
2022/04/02 04:18:11;;;;;;;11.40;4.20;;;;;;;14.08;66.62;98232.36;126646;1102;101963;-76
2022/04/02 04:20:43;;;;;;;10.73;4.13;;;;;;;14.05;67.05;98229.77;126347;1102;101629;-76
2022/04/02 04:23:19;;;;;;;10.53;4.00;;;;;;;14.02;67.11;98244.75;126315;1105;101595;-76
2022/04/02 04:25:50;;;;;;;9.07;3.50;;;;;;;13.99;66.77;98239.52;126394;1102;101536;-76
2022/04/02 04:28:22;;;;;;;10.70;4.33;;;;;;;14.05;66.79;98238.53;126349;1101;103063;-76
2022/04/02 04:30:53;;;;;;;10.93;3.70;;;;;;;14.11;67.08;98237.59;126361;1102;101884;-76
2022/04/02 04:33:24;;;;;;;9.23;3.60;;;;;;;14.17;66.63;98237.49;127050;1102;101610;-76
2022/04/02 04:35:56;;;;;;;10.23;3.80;;;;;;;14.16;67.75;98236.63;126386;1102;101134;-76
2022/04/02 04:38:26;;;;;;;9.80;3.90;;;;;;;14.15;66.98;98236.66;126342;1105;101244;-76
2022/04/02 04:40:56;;;;;;;11.87;4.00;;;;;;;14.16;67.22;98241.02;126286;1105;102998;-76
2022/04/02 04:43:27;;;;;;;11.13;4.03;;;;;;;14.18;66.86;98245.38;126259;1105;102001;-76
2022/04/02 04:45:57;;;;;;;10.57;3.70;;;;;;;14.20;67.74;98243.59;126338;1105;101893;-76
2022/04/02 04:48:26;;;;;;;10.20;4.17;;;;;;;14.17;67.94;98248.91;126317;1105;101740;-76
2022/04/02 04:50:59;;;;;;;12.33;4.50;;;;;;;14.13;67.64;98248.97;126317;1105;101657;-77
2022/04/02 04:53:32;;;;;;;12.80;4.27;;;;;;;14.08;67.44;98256.09;126306;1105;103258;-76
2022/04/02 04:56:03;;;;;;;15.30;4.47;;;;;;;14.02;67.87;98257.03;126337;1105;101931;-76
2022/04/02 04:58:33;;;;;;;14.47;4.33;;;;;;;14.01;67.42;98253.54;126361;1105;101770;-76
2022/04/02 05:01:06;;;;;;;12.93;4.72;;;;;;;14.03;67.65;98250.88;126318;1104;102009;-76
2022/04/02 05:03:39;;;;;;;15.40;5.00;;;;;;;14.02;67.37;98247.38;126346;1104;101340;-76
2022/04/02 05:06:09;;;;;;;;;;;;;;;13.99;68.30;98251.80;126374;1105;101913;-76
2022/04/02 05:08:41;;;;;;;14.93;5.43;;;;;;;13.98;67.99;98256.22;126311;1104;101723;-76
2022/04/02 05:11:15;;;;;;;15.17;5.77;;;;;;;14.01;67.97;98256.17;127357;1101;101416;-78
2022/04/02 05:13:51;;;;;;;14.87;5.07;;;;;;;13.98;69.17;98250.94;126380;1102;101957;-78
2022/04/02 05:16:24;;;;;;;16.87;6.47;;;;;;;13.96;68.62;98255.37;126428;1102;101617;-78
2022/04/02 05:19:00;;;;;;;17.30;6.43;;;;;;;13.99;68.33;98257.08;126348;1102;101943;-78
2022/04/02 05:21:30;;;;;;;17.73;5.77;;;;;;;14.00;68.70;98257.05;126311;1102;101347;-78
2022/04/02 05:24:02;;;;;;;21.10;6.10;;;;;;;14.02;68.69;98254.40;126378;1102;101642;-76
2022/04/02 05:26:32;;;;;;;15.17;5.87;;;;;;;14.01;68.91;98264.09;126287;1102;101658;-76
2022/04/02 05:29:11;;;;;;;18.30;6.40;;;;;;;13.98;68.21;98265.91;126345;1105;101527;-76
2022/04/02 05:31:41;;;;;;;16.17;6.17;;;;;;;14.01;68.17;98261.45;126337;1105;102092;-76
2022/04/02 05:34:11;;;;;;;17.17;6.10;;;;;;;14.06;68.78;98261.38;126284;1105;101703;-76
2022/04/02 05:36:43;;;;;;;14.87;6.73;;;;;;;14.09;68.18;98263.98;126305;1105;101807;-76
2022/04/02 05:39:13;;;;;;;15.83;6.50;;;;;;;14.12;68.58;98252.52;126317;1105;101575;-76
2022/04/02 05:41:46;;;;;;;14.73;6.73;;;;;;;14.16;68.55;98251.56;126382;1105;102311;-76
2022/04/02 05:44:16;;;;;;;16.13;6.83;;;;;;;14.19;68.08;98262.97;126310;1105;103892;-75
2022/04/02 05:46:45;;;;;;;15.63;6.97;;;;;;;14.21;69.10;98260.30;126327;1105;101538;-76
2022/04/02 05:49:16;;;;;;;17.53;6.83;;;;;;;14.24;69.16;98257.59;126305;1105;101886;-76
2022/04/02 05:51:46;;;;;;;16.67;7.13;;;;;;;14.27;69.43;98261.95;126317;1104;101724;-76
2022/04/02 05:54:15;;;;;;;13.37;6.20;;;;;;;14.32;68.99;98257.47;126435;1102;101632;-76
2022/04/02 05:56:49;;;;;;;16.12;6.35;;;;;;;14.35;68.72;98266.23;126382;1102;102105;-76
2022/04/02 05:59:20;;;;;;;14.00;6.33;;;;;;;14.39;68.82;98264.41;126515;1101;101642;-76
2022/04/02 06:01:50;;;;;;;16.63;6.00;;;;;;;14.41;68.89;98272.30;126393;1102;101555;-76
2022/04/02 06:04:19;;;;;;;16.03;6.37;;;;;;;14.44;68.68;98269.62;126326;1102;101982;-76
2022/04/02 06:06:47;;;;;;;18.70;6.97;;;;;;;14.45;69.22;98280.15;126859;1101;101654;-76
2022/04/02 06:09:16;;;;;;;15.60;6.57;;;;;;;14.47;69.25;98278.34;126596;1101;101922;-76
2022/04/02 06:11:46;;;;;;;20.00;6.40;;;;;;;14.48;68.69;98274.82;126728;1101;102016;-76
2022/04/02 06:14:15;;;;;;;15.43;6.50;;;;;;;14.46;69.56;98281.01;126363;1102;101627;-76
2022/04/02 06:16:45;;;;;;;15.40;6.27;;;;;;;14.45;68.50;98277.51;127421;1101;101504;-75
2022/04/02 06:19:17;;;;;;;19.00;6.53;;;;;;;14.46;68.52;98288.92;126378;1105;101181;-75
2022/04/02 06:21:46;;;;;;;17.27;6.70;;;;;;;14.46;68.84;98276.63;127433;1101;101920;-76
2022/04/02 06:24:15;;;;;;;19.33;6.90;;;;;;;14.50;69.18;98285.35;126329;1102;101867;-76
2022/04/02 06:26:45;;;;;;;16.70;6.40;;;;;;;14.53;68.60;98288.81;127470;1101;102275;-76
2022/04/02 06:29:14;;;;;;;20.43;7.77;;;;;;;14.56;69.54;98290.53;127399;1101;101573;-76
2022/04/02 06:31:44;;;;;;;15.10;6.60;;;;;;;14.60;69.54;98296.63;126356;1105;101958;-76
2022/04/02 06:34:14;;;;;;;17.07;6.80;;;;;;;14.65;68.73;98298.34;126375;1102;101899;-75
2022/04/02 06:36:43;;;;;;;16.60;6.80;;;;;;;14.69;69.56;98302.69;126307;1105;108045;-76
2022/04/02 06:39:12;;;;;;;14.87;6.13;;;;;;;14.75;69.34;98309.61;126361;1105;101487;-76
2022/04/02 06:41:42;;;;;;;18.83;6.30;;;;;;;14.84;69.24;98311.25;126350;1105;101626;-77
2022/04/02 06:44:14;;;;;;;14.83;6.00;;;;;;;14.92;69.62;98307.56;126299;1105;101394;-77
2022/04/02 06:46:45;;;;;;;18.07;6.80;;;;;;;14.96;68.68;98312.79;126301;1104;101903;-77
2022/04/02 06:49:15;;;;;;;17.73;6.90;;;;;;;15.01;69.44;98311.83;126308;1105;101908;-77
2022/04/02 06:51:43;;;;;;;13.93;6.63;;;;;;;15.07;69.05;98316.14;126360;1105;101285;-76
2022/04/02 06:54:14;;;;;;;16.37;6.60;;;;;;;15.14;68.51;98316.89;126340;1105;101498;-76
2022/04/02 06:56:45;;;;;;;14.97;6.33;;;;;;;15.17;68.68;98312.42;126332;1105;101663;-77
2022/04/02 06:59:15;;;;;;;16.57;6.53;;;;;;;15.22;69.27;98320.27;126332;1105;101896;-77
2022/04/02 07:01:45;;;;;;;16.80;6.87;;;;;;;15.24;68.50;98324.63;126285;1105;101985;-78
2022/04/02 07:04:14;;;;;;;17.77;6.43;;;;;;;15.31;69.34;98324.52;126337;1105;101740;-77
2022/04/02 07:06:45;;;;;;;13.83;6.10;;;;;;;15.38;69.00;98324.38;126343;1105;101542;-77
2022/04/02 07:09:15;;;;;;;19.93;6.97;;;;;;;15.43;68.62;98324.30;127297;1101;101235;-77
2022/04/02 07:11:44;;;;;;;16.47;5.90;;;;;;;15.48;68.51;98321.56;127297;1101;101888;-77
2022/04/02 07:14:14;;;;;;;13.43;6.20;;;;;;;15.50;68.44;98325.91;126342;1102;101197;-77
2022/04/02 07:16:45;;;;;;;18.03;6.23;;;;;;;15.47;68.84;98328.60;126337;1102;101630;-77
2022/04/02 07:19:19;;;;;;;13.70;5.60;;;;;;;15.45;68.73;98340.98;126781;1101;101488;-77
2022/04/02 07:21:50;;;;;;;11.20;5.43;;;;;;;15.45;68.09;98336.56;126370;1102;101411;-77
2022/04/02 07:24:19;;;;;;;13.60;5.83;;;;;;;15.48;68.14;98332.14;126997;1101;103068;-77
2022/04/02 07:26:54;;;;;;;12.90;5.53;;;;;;;15.57;68.77;98339.89;126312;1102;101900;-77
2022/04/02 07:29:26;;;;;;;10.83;5.40;;;;;;;15.62;68.94;98341.53;126351;1102;101575;-76
2022/04/02 07:31:55;;;;;;;11.95;5.28;;;;;;;15.70;68.19;98343.16;126352;1102;101579;-76
2022/04/02 07:34:27;;;;;;;19.27;5.70;;;;;;;15.76;68.50;98343.91;126360;1101;101668;-77
2022/04/02 07:37:05;;;;;;;14.90;5.73;;;;;;;15.83;68.79;98344.68;127244;1101;102033;-77
2022/04/02 07:39:44;;;;;;;14.17;5.60;;;;;;;15.91;68.98;98355.11;127365;1101;101590;-78
2022/04/02 07:42:20;;;;;;;11.00;5.10;;;;;;;15.98;68.91;98356.73;127281;1101;101514;-77
2022/04/02 07:45:03;;;;;;;11.60;4.50;;;;;;;16.03;68.79;98359.29;127184;1101;101660;-77
2022/04/02 07:47:35;;;;;;;10.57;4.97;;;;;;;16.01;68.06;98361.97;127018;1101;101284;-76
2022/04/02 07:50:11;;;;;;;14.68;5.40;;;;;;;15.98;67.84;98367.31;126420;1102;103014;-77
2022/04/02 07:52:43;;;;;;;17.40;4.83;;;;;;;16.02;68.05;98363.72;126371;1102;101716;-77
2022/04/02 07:55:15;;;;;;;11.63;4.73;;;;;;;16.01;68.04;98369.90;126515;1101;101346;-77
2022/04/02 07:57:47;;;;;;;10.00;5.00;;;;;;;16.00;68.23;98362.86;126348;1102;102153;-77
2022/04/02 08:00:20;;;;;;;13.10;5.10;;;;;;;16.06;67.76;98369.80;126957;1101;101096;-77
2022/04/02 08:02:51;;;;;;;15.33;5.77;;;;;;;16.13;68.68;98372.30;127230;1101;101832;-77
2022/04/02 08:05:23;;;;;;;10.50;4.83;;;;;;;16.19;68.52;98373.95;126357;1102;101227;-77
2022/04/02 08:08:07;;;;;;;11.20;4.83;;;;;;;16.28;68.72;98376.41;126372;1102;101376;-77
2022/04/02 08:10:45;;;;;;;9.83;4.70;;;;;;;16.34;68.71;98378.03;126342;1102;101756;-77
2022/04/02 08:13:17;;;;;;;11.67;4.90;;;;;;;16.38;67.98;98381.47;126979;1101;101602;-77
2022/04/02 08:15:49;;;;;;;12.70;5.20;;;;;;;16.45;68.65;98375.15;126355;1102;101954;-77
2022/04/02 08:18:26;;;;;;;15.27;5.57;;;;;;;16.53;68.04;98379.38;126734;1101;102078;-77
2022/04/02 08:20:57;;;;;;;10.53;4.47;;;;;;;16.59;68.39;98382.78;126342;1102;101718;-76
2022/04/02 08:23:33;;;;;;;12.97;4.93;;;;;;;16.68;68.37;98377.28;126390;1101;102106;-77
2022/04/02 08:26:15;;;;;;;11.70;5.00;;;;;;;16.72;68.30;98381.61;127437;1100;101537;-77
2022/04/02 08:29:10;;;;;;;13.13;5.13;;;;;;;16.76;67.88;98385.91;126357;1102;102012;-77
2022/04/02 08:31:56;;;;;;;14.17;5.13;;;;;;;16.85;67.92;98380.41;127222;1101;101734;-77
2022/04/02 08:34:43;;;;;;;13.07;5.03;;;;;;;16.93;68.07;98388.20;127437;1102;101576;-77
2022/04/02 08:37:22;;;;;;;13.57;4.90;;;;;;;16.94;67.66;98383.76;126357;1103;101613;-76
2022/04/02 08:40:01;;;;;;;13.27;5.67;;;;;;;16.96;68.08;98389.91;126334;1105;101616;-77
2022/04/02 08:43:02;;;;;;;12.40;7.00;;;;;;;17.00;68.30;98384.51;126370;1105;101984;-77
2022/04/02 08:45:32;;;;;;;15.47;7.53;;;;;;;17.00;67.95;98388.91;127064;1101;101581;-77
2022/04/02 08:48:25;;;;;;;20.40;10.83;;;;;;;17.04;67.94;98385.30;126891;1102;101626;-77
2022/04/02 08:51:15;;;;;;;12.23;6.07;;;;;;;17.09;68.03;98387.83;127023;1101;101671;-77
2022/04/02 08:53:58;;;;;;;15.70;6.27;;;;;;;17.17;68.25;98394.70;126356;1105;101240;-77
2022/04/02 08:56:31;;;;;;;13.18;4.83;;;;;;;17.23;67.71;98386.59;127219;1101;102971;-77
2022/04/02 08:59:04;;;;;;;12.70;5.00;;;;;;;17.36;67.74;98391.59;126352;1102;101954;-77
2022/04/02 09:02:04;;;;;;;10.80;5.07;;;;;;;17.49;67.76;98392.99;127371;1102;102054;-77
2022/04/02 09:05:06;;;;;;;11.80;4.67;;;;;;;17.67;67.66;98396.95;127390;1101;101548;-77
2022/04/02 09:08:18;;;;;;;13.43;5.10;;;;;;;17.78;67.50;98397.53;126343;1102;101104;-77
2022/04/02 09:11:27;;;;;;;11.57;4.97;;;;;;;17.97;67.61;98402.36;127414;1101;103083;-78
2022/04/02 09:14:18;;;;;;;12.90;5.17;;;;;;;18.13;67.25;98397.48;126003;1105;102040;-77
2022/04/02 09:17:01;;;;;;;10.77;4.77;;;;;;;18.25;67.05;98394.48;126360;1105;102040;-77
2022/04/02 09:20:00;;;;;;;12.50;5.00;;;;;;;18.42;66.97;98393.98;126287;1105;101820;-77
2022/04/02 09:22:36;;;;;;;12.30;5.20;;;;;;;18.66;66.85;98402.13;126023;1104;101706;-76
2022/04/02 09:25:38;;;;;;;12.13;5.20;;;;;;;18.84;66.30;98398.03;126041;1105;102829;-77
2022/04/02 09:28:26;;;;;;;14.63;5.53;;;;;;;18.93;65.32;98397.78;126277;1105;102182;-76
2022/04/02 09:31:26;;;;;;;11.13;5.10;;;;;;;19.10;65.90;98396.34;126351;1105;101859;-77
2022/04/02 09:34:35;;;;;;;10.10;5.00;;;;;;;19.30;66.13;98401.88;126338;1105;101591;-76
2022/04/02 09:37:18;;;;;;;16.17;5.03;;;;;;;19.42;66.27;98400.59;126157;1105;101911;-77
2022/04/02 09:40:01;;;;;;;11.00;5.30;;;;;;;19.47;65.89;98400.45;126307;1105;102123;-76
2022/04/02 09:42:45;;;;;;;14.40;5.00;;;;;;;19.45;65.14;98402.30;126312;1105;101625;-76
2022/04/02 09:45:17;;;;;;;14.83;5.07;;;;;;;19.36;65.12;98404.33;126943;1101;101789;-76
2022/04/02 09:48:16;;;;;;;15.33;5.70;;;;;;;19.32;64.39;98407.13;127389;1101;101567;-77
2022/04/02 09:50:49;;;;;;;13.57;5.43;;;;;;;19.26;65.18;98413.55;126387;1102;101650;-76
2022/04/02 09:53:27;;;;;;;13.48;5.58;;;;;;;19.33;65.05;98415.06;127355;1101;102004;-76
2022/04/02 09:56:17;;;;;;;11.57;5.70;;;;;;;19.45;64.38;98411.13;126356;1102;101227;-76
2022/04/02 09:59:05;;;;;;;13.53;5.33;;;;;;;19.71;64.68;98412.02;126395;1102;101574;-77
2022/04/02 10:01:42;;;;;;;15.17;5.83;;;;;;;20.04;64.37;98407.33;127394;1101;101972;-76
2022/04/02 10:04:34;;;;;;;12.20;5.17;;;;;;;20.22;63.85;98403.11;127168;1101;101524;-77
2022/04/02 10:07:09;;;;;;;13.37;5.37;;;;;;;20.25;62.77;98410.98;127075;1101;103009;-77
2022/04/02 10:09:41;;;;;;;15.77;5.90;;;;;;;20.22;63.13;98407.58;126313;1102;101613;-77
2022/04/02 10:12:16;;;;;;;13.90;5.30;;;;;;;20.11;63.20;98418.63;126919;1101;101714;-77
2022/04/02 10:14:48;;;;;;;13.37;5.63;;;;;;;19.85;62.39;98419.55;126738;1101;101610;-77
2022/04/02 10:17:22;;;;;;;15.27;5.90;;;;;;;19.60;62.49;98419.51;126378;1102;101558;-77
2022/04/02 10:19:55;;;;;;;15.57;5.73;;;;;;;19.36;62.02;98419.42;127075;1101;102933;-77
2022/04/02 10:22:39;;;;;;;11.53;5.50;;;;;;;19.14;62.33;98411.29;127133;1101;101164;-77
2022/04/02 10:25:10;;;;;;;;;;;;;;;18.89;61.52;98419.18;126461;1102;101631;-77
2022/04/02 10:27:43;;;;;;;14.90;6.30;;;;;;;18.68;61.97;98435.70;126295;1102;101521;-77
2022/04/02 10:30:14;;;;;;;17.03;5.97;;;;;;;18.42;61.44;98427.64;127262;1101;101385;-77
2022/04/02 10:33:26;;;;;;;16.93;5.30;;;;;;;18.03;61.13;98433.14;126384;1102;102306;-76
2022/04/02 10:35:58;;;;;;;16.67;5.03;;;;;;;17.41;60.91;98440.05;126332;1102;101840;-77
2022/04/02 10:38:49;;;;;;;7.67;4.33;;;;;;;16.87;61.21;98442.18;126356;1102;101855;-76
2022/04/02 10:41:21;;;;;;;11.83;4.97;;;;;;;16.33;61.71;98460.96;127345;1101;101269;-76
2022/04/02 10:44:00;;;;;;;12.50;4.63;;;;;;;15.94;62.28;98450.27;127396;1101;101535;-77
2022/04/02 10:46:34;;;;;;;12.83;4.97;;;;;;;15.61;63.28;98468.45;127400;1101;102717;-76
2022/04/02 10:49:05;;;;;;;14.70;4.50;;;;;;;15.26;63.17;98468.14;127366;1101;101220;-76
2022/04/02 10:51:38;;;;;;;8.80;3.77;;;;;;;15.00;63.75;98473.81;127295;1101;101356;-76
2022/04/02 10:54:09;;;;;;;6.10;3.50;;;;;;;14.76;63.25;98467.13;127396;1101;101081;-77
2022/04/02 10:56:43;;;;;;;8.13;3.77;;;;;;;14.63;64.05;98463.79;127406;1101;101459;-77
2022/04/02 10:59:16;;;;;;;8.57;3.83;;;;;;;14.58;63.58;98460.28;126346;1102;102857;-77
2022/04/02 11:01:49;;;;;;;7.62;3.70;;;;;;;14.62;64.23;98461.17;127208;1102;101473;-77
2022/04/02 11:04:30;;;;;;;9.30;3.92;;;;;;;14.66;63.92;98470.77;126388;1102;101618;-77
2022/04/02 11:07:00;;;;;;;7.77;3.43;;;;;;;14.77;63.68;98470.63;127361;1101;101466;-77
2022/04/02 11:09:32;;;;;;;6.70;3.67;;;;;;;14.92;64.82;98471.28;126321;1103;101556;-77
2022/04/02 11:12:06;;;;;;;10.53;3.80;;;;;;;15.12;65.08;98475.41;126368;1102;104498;-76
2022/04/02 11:14:39;;;;;;;8.23;4.00;;;;;;;15.33;64.84;98487.40;127374;1101;101516;-77
2022/04/02 11:17:09;;;;;;;9.60;3.95;;;;;;;15.50;64.97;98470.41;127314;1101;101612;-77
2022/04/02 11:19:54;;;;;;;7.50;3.90;;;;;;;15.69;64.67;98477.14;126331;1105;101587;-77
2022/04/02 11:22:28;;;;;;;7.70;3.97;;;;;;;15.97;64.85;98471.36;126487;1101;101895;-77
2022/04/02 11:25:06;;;;;;;11.65;5.60;;;;;;;16.22;66.01;98457.67;126319;1102;103541;-77
2022/04/02 11:27:38;;;;;;;12.90;5.53;;;;;;;16.49;65.53;98459.76;126307;1103;101554;-77
2022/04/02 11:30:12;;;;;;;14.87;6.80;;;;;;;16.77;65.82;98467.11;126361;1102;101080;-77
2022/04/02 11:32:43;;;;;;;12.77;6.00;;;;;;;16.98;65.83;98471.08;126342;1102;101497;-77
2022/04/02 11:35:15;;;;;;;15.03;6.20;;;;;;;17.06;65.63;98466.50;126395;1102;101615;-77
2022/04/02 11:37:57;;;;;;;15.43;6.30;;;;;;;17.20;65.47;98463.52;127287;1101;101846;-77
2022/04/02 11:40:29;;;;;;;15.43;6.40;;;;;;;17.22;65.42;98464.35;126322;1105;101809;-77
2022/04/02 11:43:02;;;;;;;12.53;6.03;;;;;;;17.24;65.90;98465.17;126299;1105;101878;-77
2022/04/02 11:45:32;;;;;;;15.87;7.00;;;;;;;17.29;65.91;98459.77;126383;1102;102194;-77
2022/04/02 11:48:10;;;;;;;17.43;6.60;;;;;;;17.22;65.42;98463.48;126391;1102;101802;-78
2022/04/02 11:50:43;;;;;;;14.07;5.77;;;;;;;17.03;65.01;98463.92;126387;1102;102867;-77
2022/04/02 11:53:13;;;;;;;16.47;6.20;;;;;;;16.84;64.77;98459.89;126926;1101;108194;-77